Impacts METAR Board INFO
IDs:

KPHX - Phoenix/Sky Harbor, AZ, US

Updated at: 0849 UTC 19 Nov 2017
Potential Impact None Slight Moderate High
Time18/20Z 18/21Z 18/22Z 18/23Z 19/00Z 19/01Z 19/02Z 19/03Z 19/04Z 19/05Z 19/06Z 19/07Z 19/08Z
VIS10 10 10 10 10 10 10 10 10 10 10 10 10
CIG-- -- -- -- -- -- -- -- -- -- -- -- --
CoverFEWCLRCLRFEWFEWFEWFEWCLRCLRCLRFEWSCTSCT
FltCatVFRVFRVFRVFRVFRVFRVFRVFRVFRVFRVFRVFRVFR
WX--------------------------
WDir6000300290300230230270240220260230
WSpd3 0 0 5 6 5 4 5 6 4 4 5 4
WGst-- -- -- -- -- -- -- -- -- -- -- -- --
Raw hourly METARs
KPHX 181951Z 06003KT 10SM FEW180 24/01 A3010 RMK AO2 SLP181 T02390011
KPHX 182051Z 00000KT 10SM CLR 24/01 A3008 RMK AO2 SLP173 T02440011 58024
KPHX 182151Z 00000KT 10SM CLR 25/M01 A3005 RMK AO2 SLP165 T02501006
KPHX 182251Z 30005KT 10SM FEW250 25/M01 A3003 RMK AO2 SLP158 T02501011
KPHX 182351Z 29006KT 10SM FEW250 25/M02 A3003 RMK AO2 SLP157 T02501022 10261 20222 56016
KPHX 190051Z 30005KT 10SM FEW250 24/M03 A3003 RMK AO2 SLP158 T02441033
KPHX 190151Z 23004KT 10SM FEW250 21/M01 A3004 RMK AO2 SLP163 T02061006
KPHX 190251Z 23005KT 10SM CLR 20/00 A3005 RMK AO2 SLP167 T02000000 53007
KPHX 190351Z 27006KT 10SM CLR 21/M02 A3007 RMK AO2 SLP170 T02061022
KPHX 190451Z 24004KT 10SM CLR 17/M01 A3007 RMK AO2 SLP173 T01721011
KPHX 190551Z 22004KT 10SM FEW250 17/M03 A3008 RMK AO2 SLP174 T01671028 10250 20161 51008
KPHX 190651Z 26005KT 10SM SCT250 17/M02 A3008 RMK AO2 SLP174 T01671022 402610133
KPHX 190751Z 23004KT 10SM SCT250 14/M03 A3006 RMK AO2 SLP169 T01391028